sensor_id;sensor_type;location;lat;lon;timestamp;pressure;altitude;pressure_sealevel;temperature;humidity
36454;BME280;22478;51.740;-1.314;2023-08-01T00:00:58;98823.82;;;13.78;100.00
36454;BME280;22478;51.740;-1.314;2023-08-01T00:03:25;98824.89;;;12.46;100.00
36454;BME280;22478;51.740;-1.314;2023-08-01T00:05:52;98825.73;;;12.86;100.00
36454;BME280;22478;51.740;-1.314;2023-08-01T00:08:20;98835.30;;;11.39;100.00
36454;BME280;22478;51.740;-1.314;2023-08-01T00:10:47;98826.76;;;13.06;100.00
36454;BME280;22478;51.740;-1.314;2023-08-01T00:13:14;98829.82;;;12.75;100.00
36454;BME280;22478;51.740;-1.314;2023-08-01T00:15:42;98822.63;;;13.94;100.00
36454;BME280;22478;51.740;-1.314;2023-08-01T00:18:09;98823.57;;;12.61;100.00
36454;BME280;22478;51.740;-1.314;2023-08-01T00:20:36;98824.08;;;13.11;100.00
36454;BME280;22478;51.740;-1.314;2023-08-01T00:23:03;98827.14;;;12.02;100.00
36454;BME280;22478;51.740;-1.314;2023-08-01T00:25:30;98817.15;;;13.41;100.00
36454;BME280;22478;51.740;-1.314;2023-08-01T00:27:57;98820.26;;;13.93;100.00
36454;BME280;22478;51.740;-1.314;2023-08-01T00:30:25;98823.97;;;13.85;100.00
36454;BME280;22478;51.740;-1.314;2023-08-01T00:32:52;98836.54;;;11.69;100.00
36454;BME280;22478;51.740;-1.314;2023-08-01T00:35:19;98832.72;;;12.51;100.00
36454;BME280;22478;51.740;-1.314;2023-08-01T00:37:47;98830.90;;;12.38;100.00
36454;BME280;22478;51.740;-1.314;2023-08-01T00:40:14;98832.31;;;13.55;100.00
36454;BME280;22478;51.740;-1.314;2023-08-01T00:42:41;98832.35;;;13.31;100.00
36454;BME280;22478;51.740;-1.314;2023-08-01T00:45:10;98831.34;;;12.59;100.00
36454;BME280;22478;51.740;-1.314;2023-08-01T00:47:37;98839.34;;;13.62;100.00
36454;BME280;22478;51.740;-1.314;2023-08-01T00:50:05;98843.11;;;11.10;100.00
36454;BME280;22478;51.740;-1.314;2023-08-01T00:52:33;98837.67;;;12.29;100.00
36454;BME280;22478;51.740;-1.314;2023-08-01T00:55:01;98840.77;;;13.33;100.00
36454;BME280;22478;51.740;-1.314;2023-08-01T00:57:29;98835.20;;;14.17;100.00
36454;BME280;22478;51.740;-1.314;2023-08-01T00:59:57;98846.22;;;11.15;100.00
36454;BME280;22478;51.740;-1.314;2023-08-01T01:02:25;98838.17;;;12.42;100.00
36454;BME280;22478;51.740;-1.314;2023-08-01T01:04:52;98842.80;;;12.77;100.00
36454;BME280;22478;51.740;-1.314;2023-08-01T01:07:19;98840.13;;;13.45;100.00
36454;BME280;22478;51.740;-1.314;2023-08-01T01:09:48;98838.87;;;13.69;100.00
36454;BME280;22478;51.740;-1.314;2023-08-01T01:12:16;98839.95;;;13.63;100.00
36454;BME280;22478;51.740;-1.314;2023-08-01T01:14:43;98843.57;;;11.72;100.00
36454;BME280;22478;51.740;-1.314;2023-08-01T01:17:11;98848.04;;;13.97;100.00
36454;BME280;22478;51.740;-1.314;2023-08-01T01:19:38;98845.76;;;13.27;100.00
36454;BME280;22478;51.740;-1.314;2023-08-01T01:22:07;98847.91;;;12.60;100.00
36454;BME280;22478;51.740;-1.314;2023-08-01T01:24:35;98845.16;;;12.75;100.00
36454;BME280;22478;51.740;-1.314;2023-08-01T01:27:04;98851.27;;;12.49;100.00
36454;BME280;22478;51.740;-1.314;2023-08-01T01:29:33;98859.80;;;11.78;100.00
36454;BME280;22478;51.740;-1.314;2023-08-01T01:32:01;98855.91;;;12.30;100.00
36454;BME280;22478;51.740;-1.314;2023-08-01T01:34:30;98856.56;;;12.46;100.00
36454;BME280;22478;51.740;-1.314;2023-08-01T01:36:57;98858.81;;;11.83;100.00
36454;BME280;22478;51.740;-1.314;2023-08-01T01:39:25;98848.08;;;13.27;100.00
36454;BME280;22478;51.740;-1.314;2023-08-01T01:41:52;98853.77;;;11.58;100.00
36454;BME280;22478;51.740;-1.314;2023-08-01T01:44:19;98861.15;;;12.13;100.00
36454;BME280;22478;51.740;-1.314;2023-08-01T01:46:47;98854.53;;;12.61;100.00
36454;BME280;22478;51.740;-1.314;2023-08-01T01:49:14;98862.93;;;12.10;100.00
36454;BME280;22478;51.740;-1.314;2023-08-01T01:51:41;98857.22;;;13.09;100.00
36454;BME280;22478;51.740;-1.314;2023-08-01T01:54:08;98859.78;;;13.54;100.00
36454;BME280;22478;51.740;-1.314;2023-08-01T01:56:35;98856.52;;;13.61;100.00
36454;BME280;22478;51.740;-1.314;2023-08-01T01:59:02;98855.28;;;13.18;100.00
36454;BME280;22478;51.740;-1.314;2023-08-01T02:01:29;98864.24;;;12.60;100.00
36454;BME280;22478;51.740;-1.314;2023-08-01T02:03:56;98865.79;;;12.28;100.00
36454;BME280;22478;51.740;-1.314;2023-08-01T02:06:24;98862.87;;;11.91;100.00
36454;BME280;22478;51.740;-1.314;2023-08-01T02:08:51;98860.03;;;11.89;100.00
36454;BME280;22478;51.740;-1.314;2023-08-01T02:11:18;98858.70;;;13.69;100.00
36454;BME280;22478;51.740;-1.314;2023-08-01T02:13:46;98853.73;;;13.55;100.00
36454;BME280;22478;51.740;-1.314;2023-08-01T02:16:12;98863.97;;;11.72;100.00
36454;BME280;22478;51.740;-1.314;2023-08-01T02:18:41;98866.84;;;11.34;100.00
36454;BME280;22478;51.740;-1.314;2023-08-01T02:21:08;98870.33;;;11.59;100.00
36454;BME280;22478;51.740;-1.314;2023-08-01T02:23:34;98862.51;;;12.48;100.00
36454;BME280;22478;51.740;-1.314;2023-08-01T02:26:02;98861.71;;;12.65;100.00
36454;BME280;22478;51.740;-1.314;2023-08-01T02:28:29;98860.02;;;12.76;100.00
36454;BME280;22478;51.740;-1.314;2023-08-01T02:30:56;98858.42;;;11.98;100.00
36454;BME280;22478;51.740;-1.314;2023-08-01T02:33:23;98856.90;;;12.46;100.00
36454;BME280;22478;51.740;-1.314;2023-08-01T02:35:50;98856.67;;;12.11;100.00
36454;BME280;22478;51.740;-1.314;2023-08-01T02:38:17;98855.77;;;12.36;100.00
36454;BME280;22478;51.740;-1.314;2023-08-01T02:40:44;98858.08;;;11.32;100.00
36454;BME280;22478;51.740;-1.314;2023-08-01T02:43:12;98855.99;;;10.89;100.00
36454;BME280;22478;51.740;-1.314;2023-08-01T02:45:41;98853.59;;;12.31;100.00
36454;BME280;22478;51.740;-1.314;2023-08-01T02:48:08;98852.26;;;11.63;100.00
36454;BME280;22478;51.740;-1.314;2023-08-01T02:50:36;98850.49;;;11.67;100.00
36454;BME280;22478;51.740;-1.314;2023-08-01T02:53:04;98846.08;;;12.09;100.00
36454;BME280;22478;51.740;-1.314;2023-08-01T02:55:31;98846.32;;;12.21;100.00
36454;BME280;22478;51.740;-1.314;2023-08-01T02:57:58;98856.04;;;10.80;100.00
36454;BME280;22478;51.740;-1.314;2023-08-01T03:00:25;98855.25;;;13.07;100.00
36454;BME280;22478;51.740;-1.314;2023-08-01T03:02:52;98847.07;;;12.15;100.00
36454;BME280;22478;51.740;-1.314;2023-08-01T03:05:19;98847.50;;;12.35;100.00
36454;BME280;22478;51.740;-1.314;2023-08-01T03:07:47;98851.76;;;12.52;100.00
36454;BME280;22478;51.740;-1.314;2023-08-01T03:10:14;98858.02;;;12.06;100.00
36454;BME280;22478;51.740;-1.314;2023-08-01T03:12:42;98848.08;;;12.19;100.00
36454;BME280;22478;51.740;-1.314;2023-08-01T03:15:09;98850.00;;;11.82;100.00
36454;BME280;22478;51.740;-1.314;2023-08-01T03:17:36;98851.38;;;11.15;100.00
36454;BME280;22478;51.740;-1.314;2023-08-01T03:20:04;98847.92;;;12.11;100.00
36454;BME280;22478;51.740;-1.314;2023-08-01T03:22:31;98845.89;;;11.70;100.00
36454;BME280;22478;51.740;-1.314;2023-08-01T03:24:58;98839.10;;;10.57;100.00
36454;BME280;22478;51.740;-1.314;2023-08-01T03:27:26;98848.78;;;10.41;100.00
36454;BME280;22478;51.740;-1.314;2023-08-01T03:29:53;98852.08;;;11.32;100.00
36454;BME280;22478;51.740;-1.314;2023-08-01T03:32:21;98847.48;;;11.18;100.00
36454;BME280;22478;51.740;-1.314;2023-08-01T03:34:48;98843.53;;;12.11;100.00
36454;BME280;22478;51.740;-1.314;2023-08-01T03:37:16;98844.32;;;10.87;100.00
36454;BME280;22478;51.740;-1.314;2023-08-01T03:39:44;98850.06;;;11.61;100.00
36454;BME280;22478;51.740;-1.314;2023-08-01T03:42:11;98845.37;;;11.17;100.00
36454;BME280;22478;51.740;-1.314;2023-08-01T03:44:38;98848.50;;;11.30;100.00
36454;BME280;22478;51.740;-1.314;2023-08-01T03:47:05;98845.27;;;11.14;100.00
36454;BME280;22478;51.740;-1.314;2023-08-01T03:49:33;98843.78;;;10.70;100.00
36454;BME280;22478;51.740;-1.314;2023-08-01T03:52:00;98848.08;;;10.95;100.00
36454;BME280;22478;51.740;-1.314;2023-08-01T03:54:27;98848.16;;;11.52;100.00
36454;BME280;22478;51.740;-1.314;2023-08-01T03:56:55;98848.48;;;10.41;100.00
36454;BME280;22478;51.740;-1.314;2023-08-01T03:59:22;98847.37;;;11.97;100.00
36454;BME280;22478;51.740;-1.314;2023-08-01T04:01:50;98846.94;;;12.26;100.00
36454;BME280;22478;51.740;-1.314;2023-08-01T04:04:17;98848.96;;;12.30;100.00
36454;BME280;22478;51.740;-1.314;2023-08-01T04:06:50;98848.88;;;13.00;100.00
36454;BME280;22478;51.740;-1.314;2023-08-01T04:09:17;98847.55;;;12.46;100.00
36454;BME280;22478;51.740;-1.314;2023-08-01T04:11:44;98849.04;;;12.64;100.00
36454;BME280;22478;51.740;-1.314;2023-08-01T04:14:11;98853.23;;;11.78;100.00
36454;BME280;22478;51.740;-1.314;2023-08-01T04:16:39;98860.15;;;9.59;100.00
36454;BME280;22478;51.740;-1.314;2023-08-01T04:19:06;98853.22;;;11.77;100.00
36454;BME280;22478;51.740;-1.314;2023-08-01T04:21:33;98848.58;;;11.53;100.00
36454;BME280;22478;51.740;-1.314;2023-08-01T04:24:00;98850.82;;;12.21;100.00
36454;BME280;22478;51.740;-1.314;2023-08-01T04:26:27;98851.11;;;11.89;100.00
36454;BME280;22478;51.740;-1.314;2023-08-01T04:28:54;98847.96;;;12.19;100.00
36454;BME280;22478;51.740;-1.314;2023-08-01T04:31:21;98854.14;;;11.31;100.00
36454;BME280;22478;51.740;-1.314;2023-08-01T04:33:48;98852.54;;;12.26;100.00
36454;BME280;22478;51.740;-1.314;2023-08-01T04:36:15;98854.29;;;11.87;100.00
36454;BME280;22478;51.740;-1.314;2023-08-01T04:38:42;98855.23;;;10.70;100.00
36454;BME280;22478;51.740;-1.314;2023-08-01T04:41:09;98858.04;;;10.70;100.00
36454;BME280;22478;51.740;-1.314;2023-08-01T04:43:36;98859.53;;;10.03;100.00
36454;BME280;22478;51.740;-1.314;2023-08-01T04:46:03;98854.11;;;10.46;100.00
36454;BME280;22478;51.740;-1.314;2023-08-01T04:48:30;98856.87;;;9.04;100.00
36454;BME280;22478;51.740;-1.314;2023-08-01T04:50:58;98864.91;;;10.00;100.00
36454;BME280;22478;51.740;-1.314;2023-08-01T04:53:25;98860.79;;;11.15;100.00
36454;BME280;22478;51.740;-1.314;2023-08-01T04:55:52;98867.67;;;11.44;100.00
36454;BME280;22478;51.740;-1.314;2023-08-01T04:58:20;98868.51;;;10.84;100.00
36454;BME280;22478;51.740;-1.314;2023-08-01T05:00:46;98874.10;;;11.39;100.00
36454;BME280;22478;51.740;-1.314;2023-08-01T05:03:13;98871.98;;;12.46;100.00
36454;BME280;22478;51.740;-1.314;2023-08-01T05:05:40;98879.05;;;11.89;100.00
36454;BME280;22478;51.740;-1.314;2023-08-01T05:08:07;98878.97;;;11.84;100.00
36454;BME280;22478;51.740;-1.314;2023-08-01T05:10:34;98877.44;;;11.72;100.00
36454;BME280;22478;51.740;-1.314;2023-08-01T05:13:01;98879.43;;;10.28;100.00
36454;BME280;22478;51.740;-1.314;2023-08-01T05:15:29;98883.13;;;11.71;100.00
36454;BME280;22478;51.740;-1.314;2023-08-01T05:17:56;98887.23;;;10.75;100.00
36454;BME280;22478;51.740;-1.314;2023-08-01T05:20:24;98886.06;;;9.75;100.00
36454;BME280;22478;51.740;-1.314;2023-08-01T05:22:51;98883.41;;;11.09;100.00
36454;BME280;22478;51.740;-1.314;2023-08-01T05:25:18;98885.09;;;10.44;100.00
36454;BME280;22478;51.740;-1.314;2023-08-01T05:27:45;98885.31;;;10.05;100.00
36454;BME280;22478;51.740;-1.314;2023-08-01T05:30:12;98889.67;;;11.92;100.00
36454;BME280;22478;51.740;-1.314;2023-08-01T05:32:40;98891.25;;;11.18;100.00
36454;BME280;22478;51.740;-1.314;2023-08-01T05:35:12;98895.26;;;11.53;100.00
36454;BME280;22478;51.740;-1.314;2023-08-01T05:37:39;98893.85;;;11.57;100.00
36454;BME280;22478;51.740;-1.314;2023-08-01T05:40:07;98890.97;;;13.06;100.00
36454;BME280;22478;51.740;-1.314;2023-08-01T05:42:35;98899.74;;;9.89;100.00
36454;BME280;22478;51.740;-1.314;2023-08-01T05:45:02;98893.00;;;11.80;100.00
36454;BME280;22478;51.740;-1.314;2023-08-01T05:47:30;98895.80;;;10.34;100.00
36454;BME280;22478;51.740;-1.314;2023-08-01T05:49:58;98895.68;;;10.44;100.00
36454;BME280;22478;51.740;-1.314;2023-08-01T05:52:24;98897.88;;;11.06;100.00
36454;BME280;22478;51.740;-1.314;2023-08-01T05:54:52;98899.64;;;12.10;100.00
36454;BME280;22478;51.740;-1.314;2023-08-01T05:57:19;98901.24;;;9.69;100.00
36454;BME280;22478;51.740;-1.314;2023-08-01T05:59:46;98902.49;;;11.10;100.00
36454;BME280;22478;51.740;-1.314;2023-08-01T06:02:13;98909.06;;;9.49;100.00
36454;BME280;22478;51.740;-1.314;2023-08-01T06:04:40;98906.96;;;10.89;100.00
36454;BME280;22478;51.740;-1.314;2023-08-01T06:07:07;98903.10;;;12.16;100.00
36454;BME280;22478;51.740;-1.314;2023-08-01T06:09:34;98904.34;;;11.98;100.00
36454;BME280;22478;51.740;-1.314;2023-08-01T06:12:01;98900.31;;;11.47;100.00
36454;BME280;22478;51.740;-1.314;2023-08-01T06:14:28;98907.08;;;12.23;100.00
36454;BME280;22478;51.740;-1.314;2023-08-01T06:16:55;98909.67;;;11.18;100.00
36454;BME280;22478;51.740;-1.314;2023-08-01T06:19:22;98909.78;;;10.71;100.00
36454;BME280;22478;51.740;-1.314;2023-08-01T06:21:50;98913.36;;;10.93;100.00
36454;BME280;22478;51.740;-1.314;2023-08-01T06:24:17;98909.36;;;13.15;100.00
36454;BME280;22478;51.740;-1.314;2023-08-01T06:26:45;98906.25;;;10.13;100.00
36454;BME280;22478;51.740;-1.314;2023-08-01T06:29:12;98906.33;;;11.18;100.00
36454;BME280;22478;51.740;-1.314;2023-08-01T06:31:39;98914.79;;;9.76;100.00
36454;BME280;22478;51.740;-1.314;2023-08-01T06:34:06;98913.49;;;11.38;100.00
36454;BME280;22478;51.740;-1.314;2023-08-01T06:36:33;98909.41;;;11.38;100.00
36454;BME280;22478;51.740;-1.314;2023-08-01T06:39:00;98919.58;;;11.23;100.00
36454;BME280;22478;51.740;-1.314;2023-08-01T06:41:27;98919.85;;;12.08;100.00
36454;BME280;22478;51.740;-1.314;2023-08-01T06:43:54;98919.72;;;11.09;100.00
36454;BME280;22478;51.740;-1.314;2023-08-01T06:46:22;98918.01;;;11.68;100.00
36454;BME280;22478;51.740;-1.314;2023-08-01T06:48:49;98911.48;;;11.13;100.00
36454;BME280;22478;51.740;-1.314;2023-08-01T06:51:16;98915.48;;;10.76;100.00
36454;BME280;22478;51.740;-1.314;2023-08-01T06:53:43;98915.36;;;11.64;100.00
36454;BME280;22478;51.740;-1.314;2023-08-01T06:56:10;98910.27;;;10.58;100.00
36454;BME280;22478;51.740;-1.314;2023-08-01T06:58:37;98918.08;;;9.51;100.00
36454;BME280;22478;51.740;-1.314;2023-08-01T07:01:04;98918.99;;;8.74;100.00
36454;BME280;22478;51.740;-1.314;2023-08-01T07:03:31;98924.65;;;8.32;100.00
36454;BME280;22478;51.740;-1.314;2023-08-01T07:05:58;98920.59;;;9.27;100.00
36454;BME280;22478;51.740;-1.314;2023-08-01T07:08:26;98923.63;;;9.70;100.00
36454;BME280;22478;51.740;-1.314;2023-08-01T07:10:58;98925.77;;;11.22;100.00
36454;BME280;22478;51.740;-1.314;2023-08-01T07:13:26;98928.34;;;10.55;100.00
36454;BME280;22478;51.740;-1.314;2023-08-01T07:15:53;98930.47;;;10.16;100.00
36454;BME280;22478;51.740;-1.314;2023-08-01T07:18:20;98932.14;;;9.22;100.00
36454;BME280;22478;51.740;-1.314;2023-08-01T07:20:46;98936.96;;;8.57;100.00
36454;BME280;22478;51.740;-1.314;2023-08-01T07:23:13;98933.90;;;9.87;100.00
36454;BME280;22478;51.740;-1.314;2023-08-01T07:25:40;98939.86;;;9.67;100.00
36454;BME280;22478;51.740;-1.314;2023-08-01T07:28:07;98939.22;;;9.66;100.00
36454;BME280;22478;51.740;-1.314;2023-08-01T07:30:34;98939.24;;;9.88;100.00
36454;BME280;22478;51.740;-1.314;2023-08-01T07:33:01;98933.46;;;10.97;100.00
36454;BME280;22478;51.740;-1.314;2023-08-01T07:35:29;98935.56;;;9.39;100.00
36454;BME280;22478;51.740;-1.314;2023-08-01T07:37:56;98935.33;;;8.56;100.00
36454;BME280;22478;51.740;-1.314;2023-08-01T07:40:23;98933.25;;;9.09;100.00
36454;BME280;22478;51.740;-1.314;2023-08-01T07:42:50;98937.67;;;8.59;100.00
36454;BME280;22478;51.740;-1.314;2023-08-01T07:45:17;98934.36;;;11.71;100.00
36454;BME280;22478;51.740;-1.314;2023-08-01T07:47:45;98940.25;;;10.31;100.00
36454;BME280;22478;51.740;-1.314;2023-08-01T07:50:12;98946.23;;;9.09;100.00
36454;BME280;22478;51.740;-1.314;2023-08-01T07:52:39;98954.85;;;10.29;100.00
36454;BME280;22478;51.740;-1.314;2023-08-01T07:55:07;98950.13;;;11.45;100.00
36454;BME280;22478;51.740;-1.314;2023-08-01T07:57:34;98958.56;;;10.85;100.00
36454;BME280;22478;51.740;-1.314;2023-08-01T08:00:01;98963.51;;;10.45;100.00
36454;BME280;22478;51.740;-1.314;2023-08-01T08:02:27;98958.15;;;10.80;100.00
36454;BME280;22478;51.740;-1.314;2023-08-01T08:04:54;98958.11;;;11.84;100.00
36454;BME280;22478;51.740;-1.314;2023-08-01T08:07:22;98958.90;;;10.14;100.00
36454;BME280;22478;51.740;-1.314;2023-08-01T08:09:49;98965.10;;;11.00;100.00
36454;BME280;22478;51.740;-1.314;2023-08-01T08:12:16;98959.24;;;11.09;100.00
36454;BME280;22478;51.740;-1.314;2023-08-01T08:14:43;98957.36;;;11.68;100.00
36454;BME280;22478;51.740;-1.314;2023-08-01T08:17:10;98957.59;;;10.81;100.00
36454;BME280;22478;51.740;-1.314;2023-08-01T08:19:37;98954.08;;;10.60;100.00
36454;BME280;22478;51.740;-1.314;2023-08-01T08:22:05;98957.52;;;12.23;100.00
36454;BME280;22478;51.740;-1.314;2023-08-01T08:24:32;98951.70;;;11.90;100.00
36454;BME280;22478;51.740;-1.314;2023-08-01T08:26:58;98955.50;;;11.69;100.00
36454;BME280;22478;51.740;-1.314;2023-08-01T08:29:25;98953.97;;;12.19;100.00
36454;BME280;22478;51.740;-1.314;2023-08-01T08:31:57;98951.78;;;13.38;89.69
36454;BME280;22478;51.740;-1.314;2023-08-01T08:34:24;98956.00;;;11.99;96.03
36454;BME280;22478;51.740;-1.314;2023-08-01T08:36:52;98961.61;;;13.24;92.17
36454;BME280;22478;51.740;-1.314;2023-08-01T08:39:20;98959.91;;;12.92;96.51
36454;BME280;22478;51.740;-1.314;2023-08-01T08:41:48;98948.29;;;14.41;86.65
36454;BME280;22478;51.740;-1.314;2023-08-01T08:44:16;98949.60;;;14.19;90.66
36454;BME280;22478;51.740;-1.314;2023-08-01T08:46:50;98963.42;;;12.91;94.00
36454;BME280;22478;51.740;-1.314;2023-08-01T08:49:18;98955.51;;;12.73;93.37
36454;BME280;22478;51.740;-1.314;2023-08-01T08:51:47;98953.13;;;14.09;93.03
36454;BME280;22478;51.740;-1.314;2023-08-01T08:54:16;98970.79;;;12.05;98.91
36454;BME280;22478;51.740;-1.314;2023-08-01T08:56:43;98965.50;;;14.21;85.75
36454;BME280;22478;51.740;-1.314;2023-08-01T08:59:11;98966.69;;;13.95;88.43
36454;BME280;22478;51.740;-1.314;2023-08-01T09:01:39;98972.60;;;13.03;91.81
36454;BME280;22478;51.740;-1.314;2023-08-01T09:04:07;98974.91;;;12.44;91.48
36454;BME280;22478;51.740;-1.314;2023-08-01T09:06:40;98964.12;;;14.72;85.81
36454;BME280;22478;51.740;-1.314;2023-08-01T09:09:12;98962.79;;;14.97;79.92
36454;BME280;22478;51.740;-1.314;2023-08-01T09:11:44;98959.89;;;15.49;76.18
36454;BME280;22478;51.740;-1.314;2023-08-01T09:14:12;98962.33;;;15.08;80.68
36454;BME280;22478;51.740;-1.314;2023-08-01T09:16:40;98965.62;;;14.48;80.80
36454;BME280;22478;51.740;-1.314;2023-08-01T09:19:08;98957.59;;;14.87;84.06
36454;BME280;22478;51.740;-1.314;2023-08-01T09:21:36;98959.58;;;12.40;89.39
36454;BME280;22478;51.740;-1.314;2023-08-01T09:24:09;98963.72;;;14.10;84.91
36454;BME280;22478;51.740;-1.314;2023-08-01T09:26:36;98970.27;;;14.68;82.32
36454;BME280;22478;51.740;-1.314;2023-08-01T09:29:04;98968.84;;;13.71;85.90
36454;BME280;22478;51.740;-1.314;2023-08-01T09:31:34;98971.10;;;14.81;78.96
36454;BME280;22478;51.740;-1.314;2023-08-01T09:34:03;98968.17;;;15.61;69.75
36454;BME280;22478;51.740;-1.314;2023-08-01T09:36:30;98965.40;;;16.82;65.89
36454;BME280;22478;51.740;-1.314;2023-08-01T09:38:59;98961.78;;;18.64;62.98
36454;BME280;22478;51.740;-1.314;2023-08-01T09:41:27;98971.35;;;14.59;70.86
36454;BME280;22478;51.740;-1.314;2023-08-01T09:43:55;98974.61;;;14.04;75.33
36454;BME280;22478;51.740;-1.314;2023-08-01T09:46:23;98972.85;;;17.82;65.22
36454;BME280;22478;51.740;-1.314;2023-08-01T09:48:50;98975.21;;;14.10;76.23
36454;BME280;22478;51.740;-1.314;2023-08-01T09:51:18;98978.65;;;14.22;74.78
36454;BME280;22478;51.740;-1.314;2023-08-01T09:53:47;98976.72;;;15.26;72.39
36454;BME280;22478;51.740;-1.314;2023-08-01T09:56:15;98963.23;;;14.91;74.02
36454;BME280;22478;51.740;-1.314;2023-08-01T09:58:45;98967.34;;;17.78;67.21
36454;BME280;22478;51.740;-1.314;2023-08-01T10:01:14;98973.08;;;15.56;70.13
36454;BME280;22478;51.740;-1.314;2023-08-01T10:03:45;98980.65;;;15.04;71.74
36454;BME280;22478;51.740;-1.314;2023-08-01T10:06:14;98976.73;;;14.33;73.83
36454;BME280;22478;51.740;-1.314;2023-08-01T10:08:44;98978.99;;;13.68;75.25
36454;BME280;22478;51.740;-1.314;2023-08-01T10:11:12;98979.18;;;14.53;74.75
36454;BME280;22478;51.740;-1.314;2023-08-01T10:13:41;98972.19;;;15.83;69.66
36454;BME280;22478;51.740;-1.314;2023-08-01T10:16:09;98973.43;;;13.64;78.12
36454;BME280;22478;51.740;-1.314;2023-08-01T10:18:37;98964.11;;;14.87;76.81
36454;BME280;22478;51.740;-1.314;2023-08-01T10:21:06;98968.82;;;14.81;75.79
36454;BME280;22478;51.740;-1.314;2023-08-01T10:23:34;98971.02;;;14.13;76.12
36454;BME280;22478;51.740;-1.314;2023-08-01T10:26:04;98975.99;;;12.68;79.98
36454;BME280;22478;51.740;-1.314;2023-08-01T10:28:32;98977.46;;;11.34;86.72
36454;BME280;22478;51.740;-1.314;2023-08-01T10:31:08;98976.81;;;14.01;81.60
36454;BME280;22478;51.740;-1.314;2023-08-01T10:33:37;98975.58;;;16.32;68.19
36454;BME280;22478;51.740;-1.314;2023-08-01T10:36:13;98972.88;;;17.43;63.84
36454;BME280;22478;51.740;-1.314;2023-08-01T10:38:47;98969.15;;;16.91;60.42
36454;BME280;22478;51.740;-1.314;2023-08-01T10:41:25;98966.99;;;15.40;59.52
36454;BME280;22478;51.740;-1.314;2023-08-01T10:43:52;98968.47;;;14.29;61.82
36454;BME280;22478;51.740;-1.314;2023-08-01T10:46:20;98972.98;;;15.23;63.45
36454;BME280;22478;51.740;-1.314;2023-08-01T10:48:50;98972.22;;;16.29;61.05
36454;BME280;22478;51.740;-1.314;2023-08-01T10:51:17;98971.06;;;18.41;59.63
36454;BME280;22478;51.740;-1.314;2023-08-01T10:53:44;98973.92;;;16.41;61.65
36454;BME280;22478;51.740;-1.314;2023-08-01T10:56:16;98970.31;;;19.12;55.34
36454;BME280;22478;51.740;-1.314;2023-08-01T10:58:44;98980.78;;;16.62;56.34
36454;BME280;22478;51.740;-1.314;2023-08-01T11:01:12;98988.25;;;12.37;72.21
36454;BME280;22478;51.740;-1.314;2023-08-01T11:03:40;98992.38;;;13.00;77.39
36454;BME280;22478;51.740;-1.314;2023-08-01T11:06:07;98987.13;;;13.50;76.48
36454;BME280;22478;51.740;-1.314;2023-08-01T11:08:35;98988.51;;;15.06;75.85
36454;BME280;22478;51.740;-1.314;2023-08-01T11:11:04;98979.48;;;17.80;62.28
36454;BME280;22478;51.740;-1.314;2023-08-01T11:13:32;98983.50;;;15.58;69.81
36454;BME280;22478;51.740;-1.314;2023-08-01T11:15:59;98983.25;;;14.91;72.65
36454;BME280;22478;51.740;-1.314;2023-08-01T11:18:26;98981.97;;;18.36;63.11
36454;BME280;22478;51.740;-1.314;2023-08-01T11:20:54;98979.41;;;19.59;58.63
36454;BME280;22478;51.740;-1.314;2023-08-01T11:23:28;98979.65;;;19.16;57.52
36454;BME280;22478;51.740;-1.314;2023-08-01T11:25:55;98984.49;;;14.81;67.40
36454;BME280;22478;51.740;-1.314;2023-08-01T11:28:23;98977.59;;;15.42;68.03
36454;BME280;22478;51.740;-1.314;2023-08-01T11:30:51;98974.42;;;16.81;64.39
36454;BME280;22478;51.740;-1.314;2023-08-01T11:33:19;98975.31;;;15.73;69.45
36454;BME280;22478;51.740;-1.314;2023-08-01T11:35:50;98963.54;;;18.27;62.39
36454;BME280;22478;51.740;-1.314;2023-08-01T11:38:18;98964.10;;;16.61;60.55
36454;BME280;22478;51.740;-1.314;2023-08-01T11:40:46;98963.09;;;15.07;63.38
36454;BME280;22478;51.740;-1.314;2023-08-01T11:43:14;98965.67;;;16.22;62.42
36454;BME280;22478;51.740;-1.314;2023-08-01T11:45:48;98969.13;;;17.17;62.83
36454;BME280;22478;51.740;-1.314;2023-08-01T11:48:16;98967.73;;;14.52;70.52
36454;BME280;22478;51.740;-1.314;2023-08-01T11:50:44;98958.31;;;19.25;61.66
36454;BME280;22478;51.740;-1.314;2023-08-01T11:53:18;98956.05;;;19.15;59.30
36454;BME280;22478;51.740;-1.314;2023-08-01T11:55:45;98964.79;;;18.46;61.90
36454;BME280;22478;51.740;-1.314;2023-08-01T11:58:13;98955.34;;;21.58;52.78
36454;BME280;22478;51.740;-1.314;2023-08-01T12:00:41;98952.87;;;19.74;52.78
36454;BME280;22478;51.740;-1.314;2023-08-01T12:03:09;98952.95;;;21.27;49.66
36454;BME280;22478;51.740;-1.314;2023-08-01T12:05:42;98956.02;;;20.89;49.63
36454;BME280;22478;51.740;-1.314;2023-08-01T12:08:10;98943.17;;;22.56;44.94
36454;BME280;22478;51.740;-1.314;2023-08-01T12:10:38;98951.98;;;18.09;55.00
36454;BME280;22478;51.740;-1.314;2023-08-01T12:13:06;98952.66;;;21.97;49.31
36454;BME280;22478;51.740;-1.314;2023-08-01T12:15:34;98956.61;;;17.11;57.18
36454;BME280;22478;51.740;-1.314;2023-08-01T12:18:00;98959.26;;;16.33;60.98
36454;BME280;22478;51.740;-1.314;2023-08-01T12:20:28;98957.21;;;17.38;56.67
36454;BME280;22478;51.740;-1.314;2023-08-01T12:22:55;98955.70;;;17.01;58.79
36454;BME280;22478;51.740;-1.314;2023-08-01T12:25:22;98942.81;;;19.68;54.42
36454;BME280;22478;51.740;-1.314;2023-08-01T12:27:49;98940.69;;;20.12;55.78
36454;BME280;22478;51.740;-1.314;2023-08-01T12:30:17;98938.66;;;21.53;52.42
36454;BME280;22478;51.740;-1.314;2023-08-01T12:32:45;98932.59;;;23.51;48.01
36454;BME280;22478;51.740;-1.314;2023-08-01T12:35:12;98932.26;;;22.86;43.44
36454;BME280;22478;51.740;-1.314;2023-08-01T12:37:40;98936.03;;;24.99;40.70
36454;BME280;22478;51.740;-1.314;2023-08-01T12:40:08;98943.24;;;19.21;47.35
36454;BME280;22478;51.740;-1.314;2023-08-01T12:42:35;98931.20;;;21.17;44.03
36454;BME280;22478;51.740;-1.314;2023-08-01T12:45:03;98933.37;;;20.52;47.49